sensor_id;sensor_type;location;lat;lon;timestamp;temperature;humidity
39347;DHT22;26262;49.836;6.632;2022-10-31T00:00:07;9.90;99.90
39347;DHT22;26262;49.836;6.632;2022-10-31T00:02:33;9.90;99.90
39347;DHT22;26262;49.836;6.632;2022-10-31T00:04:58;9.90;99.90
39347;DHT22;26262;49.836;6.632;2022-10-31T00:07:24;9.90;99.90
39347;DHT22;26262;49.836;6.632;2022-10-31T00:09:49;9.80;99.90
39347;DHT22;26262;49.836;6.632;2022-10-31T00:12:15;9.80;99.90
39347;DHT22;26262;49.836;6.632;2022-10-31T00:14:40;9.80;99.90
39347;DHT22;26262;49.836;6.632;2022-10-31T00:17:06;9.90;99.90
39347;DHT22;26262;49.836;6.632;2022-10-31T00:19:31;9.80;99.90
39347;DHT22;26262;49.836;6.632;2022-10-31T00:21:57;9.80;99.90
39347;DHT22;26262;49.836;6.632;2022-10-31T00:24:22;9.80;99.90
39347;DHT22;26262;49.836;6.632;2022-10-31T00:26:48;9.80;99.90
39347;DHT22;26262;49.836;6.632;2022-10-31T00:29:14;9.80;99.90
39347;DHT22;26262;49.836;6.632;2022-10-31T00:31:39;9.80;99.90
39347;DHT22;26262;49.836;6.632;2022-10-31T00:34:05;9.80;99.90
39347;DHT22;26262;49.836;6.632;2022-10-31T00:36:30;9.80;99.90
39347;DHT22;26262;49.836;6.632;2022-10-31T00:38:58;9.80;99.90
39347;DHT22;26262;49.836;6.632;2022-10-31T00:41:23;9.80;99.90
39347;DHT22;26262;49.836;6.632;2022-10-31T00:43:49;9.80;99.90
39347;DHT22;26262;49.836;6.632;2022-10-31T00:46:14;9.80;99.90
39347;DHT22;26262;49.836;6.632;2022-10-31T00:48:40;9.80;99.90
39347;DHT22;26262;49.836;6.632;2022-10-31T00:51:06;9.80;99.90
39347;DHT22;26262;49.836;6.632;2022-10-31T00:53:32;9.80;99.90
39347;DHT22;26262;49.836;6.632;2022-10-31T00:55:57;9.80;99.90
39347;DHT22;26262;49.836;6.632;2022-10-31T00:58:23;9.80;99.90
39347;DHT22;26262;49.836;6.632;2022-10-31T01:00:48;9.80;99.90
39347;DHT22;26262;49.836;6.632;2022-10-31T01:03:21;9.80;99.90
39347;DHT22;26262;49.836;6.632;2022-10-31T01:05:59;9.80;99.90
39347;DHT22;26262;49.836;6.632;2022-10-31T01:08:25;9.80;99.90
39347;DHT22;26262;49.836;6.632;2022-10-31T01:11:04;9.80;99.90
39347;DHT22;26262;49.836;6.632;2022-10-31T01:13:31;9.90;99.90
39347;DHT22;26262;49.836;6.632;2022-10-31T01:15:58;9.90;99.90
39347;DHT22;26262;49.836;6.632;2022-10-31T01:18:24;9.90;99.90
39347;DHT22;26262;49.836;6.632;2022-10-31T01:21:04;9.90;99.90
39347;DHT22;26262;49.836;6.632;2022-10-31T01:23:30;9.90;99.90
39347;DHT22;26262;49.836;6.632;2022-10-31T01:26:16;9.90;99.90
39347;DHT22;26262;49.836;6.632;2022-10-31T01:28:47;9.90;99.90
39347;DHT22;26262;49.836;6.632;2022-10-31T01:31:13;9.90;99.90
39347;DHT22;26262;49.836;6.632;2022-10-31T01:33:39;9.90;99.90
39347;DHT22;26262;49.836;6.632;2022-10-31T01:36:13;9.90;99.90
39347;DHT22;26262;49.836;6.632;2022-10-31T01:38:40;9.90;99.90
39347;DHT22;26262;49.836;6.632;2022-10-31T01:41:06;9.90;99.90
39347;DHT22;26262;49.836;6.632;2022-10-31T01:43:52;9.90;99.90
39347;DHT22;26262;49.836;6.632;2022-10-31T01:46:24;9.70;99.90
39347;DHT22;26262;49.836;6.632;2022-10-31T01:48:52;9.40;99.90
39347;DHT22;26262;49.836;6.632;2022-10-31T01:51:20;9.50;99.90
39347;DHT22;26262;49.836;6.632;2022-10-31T01:53:48;9.60;99.90
39347;DHT22;26262;49.836;6.632;2022-10-31T01:56:16;9.70;99.90
39347;DHT22;26262;49.836;6.632;2022-10-31T01:58:44;9.70;99.90
39347;DHT22;26262;49.836;6.632;2022-10-31T02:01:10;9.80;99.90
39347;DHT22;26262;49.836;6.632;2022-10-31T02:03:37;9.80;99.90
39347;DHT22;26262;49.836;6.632;2022-10-31T02:06:06;9.80;99.90
39347;DHT22;26262;49.836;6.632;2022-10-31T02:08:34;9.80;99.90
39347;DHT22;26262;49.836;6.632;2022-10-31T02:11:00;9.80;99.90
39347;DHT22;26262;49.836;6.632;2022-10-31T02:13:28;9.80;99.90
39347;DHT22;26262;49.836;6.632;2022-10-31T02:15:57;9.90;99.90
39347;DHT22;26262;49.836;6.632;2022-10-31T02:18:25;9.80;99.90
39347;DHT22;26262;49.836;6.632;2022-10-31T02:21:15;9.80;99.90
39347;DHT22;26262;49.836;6.632;2022-10-31T02:24:33;9.90;99.90
39347;DHT22;26262;49.836;6.632;2022-10-31T02:30:05;9.90;99.90
39347;DHT22;26262;49.836;6.632;2022-10-31T02:35:36;9.90;99.90
39347;DHT22;26262;49.836;6.632;2022-10-31T02:38:11;9.90;99.90
39347;DHT22;26262;49.836;6.632;2022-10-31T02:41:19;9.90;99.90
39347;DHT22;26262;49.836;6.632;2022-10-31T02:44:00;9.90;99.90
39347;DHT22;26262;49.836;6.632;2022-10-31T02:46:45;9.90;99.90
39347;DHT22;26262;49.836;6.632;2022-10-31T02:49:23;9.90;99.90
39347;DHT22;26262;49.836;6.632;2022-10-31T02:51:50;9.90;99.90
39347;DHT22;26262;49.836;6.632;2022-10-31T02:54:22;9.90;99.90
39347;DHT22;26262;49.836;6.632;2022-10-31T02:56:49;9.80;99.90
39347;DHT22;26262;49.836;6.632;2022-10-31T02:59:17;9.80;99.90
39347;DHT22;26262;49.836;6.632;2022-10-31T03:02:20;9.80;99.90
39347;DHT22;26262;49.836;6.632;2022-10-31T03:04:57;9.80;99.90
39347;DHT22;26262;49.836;6.632;2022-10-31T03:10:16;9.80;99.90
39347;DHT22;26262;49.836;6.632;2022-10-31T03:12:58;9.80;99.90
39347;DHT22;26262;49.836;6.632;2022-10-31T03:15:30;9.70;99.90
39347;DHT22;26262;49.836;6.632;2022-10-31T03:18:17;9.60;99.90
39347;DHT22;26262;49.836;6.632;2022-10-31T03:21:04;9.60;99.90
39347;DHT22;26262;49.836;6.632;2022-10-31T03:23:32;9.70;99.90
39347;DHT22;26262;49.836;6.632;2022-10-31T03:26:03;9.70;99.90
39347;DHT22;26262;49.836;6.632;2022-10-31T03:28:35;9.70;99.90
39347;DHT22;26262;49.836;6.632;2022-10-31T03:31:04;9.70;99.90
39347;DHT22;26262;49.836;6.632;2022-10-31T03:33:32;9.70;99.90
39347;DHT22;26262;49.836;6.632;2022-10-31T03:36:01;9.70;99.90
39347;DHT22;26262;49.836;6.632;2022-10-31T03:38:28;9.70;99.90
39347;DHT22;26262;49.836;6.632;2022-10-31T03:40:56;9.70;99.90
39347;DHT22;26262;49.836;6.632;2022-10-31T03:43:27;9.70;99.90
39347;DHT22;26262;49.836;6.632;2022-10-31T03:45:53;9.70;99.90
39347;DHT22;26262;49.836;6.632;2022-10-31T03:48:20;9.70;99.90
39347;DHT22;26262;49.836;6.632;2022-10-31T03:51:07;9.70;99.90
39347;DHT22;26262;49.836;6.632;2022-10-31T03:53:39;9.70;99.90
39347;DHT22;26262;49.836;6.632;2022-10-31T03:56:22;9.70;99.90
39347;DHT22;26262;49.836;6.632;2022-10-31T03:58:55;9.70;99.90
39347;DHT22;26262;49.836;6.632;2022-10-31T04:01:24;9.70;99.90
39347;DHT22;26262;49.836;6.632;2022-10-31T04:03:51;9.70;99.90
39347;DHT22;26262;49.836;6.632;2022-10-31T04:06:19;9.70;99.90
39347;DHT22;26262;49.836;6.632;2022-10-31T04:08:53;9.70;99.90
39347;DHT22;26262;49.836;6.632;2022-10-31T04:11:24;9.70;99.90
39347;DHT22;26262;49.836;6.632;2022-10-31T04:13:52;9.60;99.90
39347;DHT22;26262;49.836;6.632;2022-10-31T04:16:19;9.20;99.90
39347;DHT22;26262;49.836;6.632;2022-10-31T04:18:46;9.00;99.90
39347;DHT22;26262;49.836;6.632;2022-10-31T04:21:11;9.10;99.90
39347;DHT22;26262;49.836;6.632;2022-10-31T04:23:37;9.20;99.90
39347;DHT22;26262;49.836;6.632;2022-10-31T04:26:03;9.30;99.90
39347;DHT22;26262;49.836;6.632;2022-10-31T04:28:29;9.30;99.90
39347;DHT22;26262;49.836;6.632;2022-10-31T04:30:54;9.30;99.90
39347;DHT22;26262;49.836;6.632;2022-10-31T04:33:20;9.40;99.90
39347;DHT22;26262;49.836;6.632;2022-10-31T04:35:46;9.40;99.90
39347;DHT22;26262;49.836;6.632;2022-10-31T04:38:12;9.40;99.90
39347;DHT22;26262;49.836;6.632;2022-10-31T04:40:37;9.40;99.90
39347;DHT22;26262;49.836;6.632;2022-10-31T04:43:03;9.40;99.90
39347;DHT22;26262;49.836;6.632;2022-10-31T04:45:28;9.40;99.90
39347;DHT22;26262;49.836;6.632;2022-10-31T04:47:54;9.40;99.90
39347;DHT22;26262;49.836;6.632;2022-10-31T04:50:19;9.40;99.90
39347;DHT22;26262;49.836;6.632;2022-10-31T04:52:46;9.40;99.90
39347;DHT22;26262;49.836;6.632;2022-10-31T04:55:12;9.40;99.90
39347;DHT22;26262;49.836;6.632;2022-10-31T04:57:42;9.40;99.90
39347;DHT22;26262;49.836;6.632;2022-10-31T05:00:09;9.40;99.90
39347;DHT22;26262;49.836;6.632;2022-10-31T05:02:48;9.40;99.90
39347;DHT22;26262;49.836;6.632;2022-10-31T05:05:16;9.40;99.90
39347;DHT22;26262;49.836;6.632;2022-10-31T05:07:44;9.40;99.90
39347;DHT22;26262;49.836;6.632;2022-10-31T05:10:11;9.40;99.90
39347;DHT22;26262;49.836;6.632;2022-10-31T05:12:38;9.40;99.90
39347;DHT22;26262;49.836;6.632;2022-10-31T05:15:04;9.40;99.90
39347;DHT22;26262;49.836;6.632;2022-10-31T05:17:31;9.40;99.90
39347;DHT22;26262;49.836;6.632;2022-10-31T05:19:57;9.40;99.90
39347;DHT22;26262;49.836;6.632;2022-10-31T05:22:22;9.40;99.90
39347;DHT22;26262;49.836;6.632;2022-10-31T05:24:48;9.40;99.90
39347;DHT22;26262;49.836;6.632;2022-10-31T05:27:13;9.40;99.90
39347;DHT22;26262;49.836;6.632;2022-10-31T05:29:39;9.40;99.90
39347;DHT22;26262;49.836;6.632;2022-10-31T05:32:04;9.40;99.90
39347;DHT22;26262;49.836;6.632;2022-10-31T05:34:30;9.40;99.90
39347;DHT22;26262;49.836;6.632;2022-10-31T05:36:55;9.40;99.90
39347;DHT22;26262;49.836;6.632;2022-10-31T05:39:21;9.40;99.90
39347;DHT22;26262;49.836;6.632;2022-10-31T05:41:46;9.40;99.90
39347;DHT22;26262;49.836;6.632;2022-10-31T05:44:12;9.40;99.90
39347;DHT22;26262;49.836;6.632;2022-10-31T05:46:37;9.40;99.90
39347;DHT22;26262;49.836;6.632;2022-10-31T05:49:03;9.40;99.90
39347;DHT22;26262;49.836;6.632;2022-10-31T05:51:28;9.30;99.90
39347;DHT22;26262;49.836;6.632;2022-10-31T05:53:54;9.30;99.90
39347;DHT22;26262;49.836;6.632;2022-10-31T05:56:19;9.20;99.90
39347;DHT22;26262;49.836;6.632;2022-10-31T05:58:45;9.20;99.90
39347;DHT22;26262;49.836;6.632;2022-10-31T06:01:10;9.30;99.90
39347;DHT22;26262;49.836;6.632;2022-10-31T06:03:36;9.30;99.90
39347;DHT22;26262;49.836;6.632;2022-10-31T06:06:02;9.30;99.90
39347;DHT22;26262;49.836;6.632;2022-10-31T06:08:27;9.30;99.90
39347;DHT22;26262;49.836;6.632;2022-10-31T06:10:53;9.20;99.90
39347;DHT22;26262;49.836;6.632;2022-10-31T06:13:19;9.20;99.90
39347;DHT22;26262;49.836;6.632;2022-10-31T06:15:44;9.30;99.90
39347;DHT22;26262;49.836;6.632;2022-10-31T06:18:10;9.30;99.90
39347;DHT22;26262;49.836;6.632;2022-10-31T06:20:35;9.30;99.90
39347;DHT22;26262;49.836;6.632;2022-10-31T06:23:02;9.30;99.90
39347;DHT22;26262;49.836;6.632;2022-10-31T06:25:28;9.30;99.90
39347;DHT22;26262;49.836;6.632;2022-10-31T06:27:54;9.30;99.90
39347;DHT22;26262;49.836;6.632;2022-10-31T06:30:19;9.30;99.90
39347;DHT22;26262;49.836;6.632;2022-10-31T06:32:45;9.40;99.90
39347;DHT22;26262;49.836;6.632;2022-10-31T06:35:11;9.30;99.90
39347;DHT22;26262;49.836;6.632;2022-10-31T06:37:37;9.20;99.90
39347;DHT22;26262;49.836;6.632;2022-10-31T06:40:03;9.30;99.90
39347;DHT22;26262;49.836;6.632;2022-10-31T06:42:28;9.30;99.90
39347;DHT22;26262;49.836;6.632;2022-10-31T06:44:54;9.30;99.90
39347;DHT22;26262;49.836;6.632;2022-10-31T06:47:19;9.40;99.90
39347;DHT22;26262;49.836;6.632;2022-10-31T06:49:45;9.40;99.90
39347;DHT22;26262;49.836;6.632;2022-10-31T06:52:10;9.40;99.90
39347;DHT22;26262;49.836;6.632;2022-10-31T06:54:36;9.40;99.90
39347;DHT22;26262;49.836;6.632;2022-10-31T06:57:01;9.40;99.90
39347;DHT22;26262;49.836;6.632;2022-10-31T06:59:27;9.40;99.90
39347;DHT22;26262;49.836;6.632;2022-10-31T07:01:52;9.50;99.90
39347;DHT22;26262;49.836;6.632;2022-10-31T07:04:18;9.50;99.90
39347;DHT22;26262;49.836;6.632;2022-10-31T07:06:43;9.50;99.90
39347;DHT22;26262;49.836;6.632;2022-10-31T07:09:09;9.60;99.90
39347;DHT22;26262;49.836;6.632;2022-10-31T07:11:35;9.60;99.90
39347;DHT22;26262;49.836;6.632;2022-10-31T07:14:00;9.60;99.90
39347;DHT22;26262;49.836;6.632;2022-10-31T07:16:26;9.60;99.90
39347;DHT22;26262;49.836;6.632;2022-10-31T07:18:51;9.70;99.90
39347;DHT22;26262;49.836;6.632;2022-10-31T07:21:17;9.60;99.90
39347;DHT22;26262;49.836;6.632;2022-10-31T07:23:42;9.70;99.90
39347;DHT22;26262;49.836;6.632;2022-10-31T07:26:09;9.70;99.90
39347;DHT22;26262;49.836;6.632;2022-10-31T07:28:35;9.70;99.90
39347;DHT22;26262;49.836;6.632;2022-10-31T07:31:01;9.80;99.90
39347;DHT22;26262;49.836;6.632;2022-10-31T07:33:26;9.50;99.90
39347;DHT22;26262;49.836;6.632;2022-10-31T07:35:52;9.50;99.90
39347;DHT22;26262;49.836;6.632;2022-10-31T07:38:18;9.30;99.90
39347;DHT22;26262;49.836;6.632;2022-10-31T07:40:44;9.30;99.90
39347;DHT22;26262;49.836;6.632;2022-10-31T07:43:12;9.40;99.90
39347;DHT22;26262;49.836;6.632;2022-10-31T07:45:38;9.60;99.90
39347;DHT22;26262;49.836;6.632;2022-10-31T07:48:04;9.70;99.90
39347;DHT22;26262;49.836;6.632;2022-10-31T07:50:31;9.80;99.90
39347;DHT22;26262;49.836;6.632;2022-10-31T07:53:07;9.90;99.90
39347;DHT22;26262;49.836;6.632;2022-10-31T07:55:34;10.00;99.90
39347;DHT22;26262;49.836;6.632;2022-10-31T07:58:04;9.90;99.90
39347;DHT22;26262;49.836;6.632;2022-10-31T08:00:32;10.00;99.90
39347;DHT22;26262;49.836;6.632;2022-10-31T08:03:02;10.10;99.90
39347;DHT22;26262;49.836;6.632;2022-10-31T08:05:29;10.20;99.90
39347;DHT22;26262;49.836;6.632;2022-10-31T08:07:55;10.20;99.90
39347;DHT22;26262;49.836;6.632;2022-10-31T08:10:21;10.30;99.90
39347;DHT22;26262;49.836;6.632;2022-10-31T08:12:54;10.30;99.90
39347;DHT22;26262;49.836;6.632;2022-10-31T08:15:19;10.20;99.90
39347;DHT22;26262;49.836;6.632;2022-10-31T08:17:45;10.30;99.90
39347;DHT22;26262;49.836;6.632;2022-10-31T08:20:10;10.40;99.90
39347;DHT22;26262;49.836;6.632;2022-10-31T08:22:36;10.30;99.90
39347;DHT22;26262;49.836;6.632;2022-10-31T08:25:02;10.40;99.90
39347;DHT22;26262;49.836;6.632;2022-10-31T08:27:27;10.50;99.90
39347;DHT22;26262;49.836;6.632;2022-10-31T08:29:53;10.60;99.90
39347;DHT22;26262;49.836;6.632;2022-10-31T08:32:18;10.70;99.90
39347;DHT22;26262;49.836;6.632;2022-10-31T08:34:44;10.80;99.90
39347;DHT22;26262;49.836;6.632;2022-10-31T08:37:09;10.80;99.90
39347;DHT22;26262;49.836;6.632;2022-10-31T08:39:35;10.60;99.90
39347;DHT22;26262;49.836;6.632;2022-10-31T08:42:00;10.50;99.90
39347;DHT22;26262;49.836;6.632;2022-10-31T08:44:26;10.60;99.90
39347;DHT22;26262;49.836;6.632;2022-10-31T08:46:51;10.70;99.90
39347;DHT22;26262;49.836;6.632;2022-10-31T08:49:17;10.70;99.90
39347;DHT22;26262;49.836;6.632;2022-10-31T08:51:42;10.70;99.90
39347;DHT22;26262;49.836;6.632;2022-10-31T08:54:08;10.80;99.90
39347;DHT22;26262;49.836;6.632;2022-10-31T08:56:33;10.90;99.90
39347;DHT22;26262;49.836;6.632;2022-10-31T08:58:59;11.10;99.90
39347;DHT22;26262;49.836;6.632;2022-10-31T09:01:25;11.20;99.90
39347;DHT22;26262;49.836;6.632;2022-10-31T09:03:50;11.40;99.90
39347;DHT22;26262;49.836;6.632;2022-10-31T09:06:16;11.50;99.90
39347;DHT22;26262;49.836;6.632;2022-10-31T09:08:41;11.70;99.90
39347;DHT22;26262;49.836;6.632;2022-10-31T09:11:07;11.80;99.90
39347;DHT22;26262;49.836;6.632;2022-10-31T09:13:32;11.90;99.90
39347;DHT22;26262;49.836;6.632;2022-10-31T09:15:58;12.00;99.90
39347;DHT22;26262;49.836;6.632;2022-10-31T09:18:24;12.10;99.90
39347;DHT22;26262;49.836;6.632;2022-10-31T09:20:50;12.20;99.90
39347;DHT22;26262;49.836;6.632;2022-10-31T09:23:21;12.30;99.90
39347;DHT22;26262;49.836;6.632;2022-10-31T09:25:47;12.20;99.90
39347;DHT22;26262;49.836;6.632;2022-10-31T09:28:16;12.30;99.90
39347;DHT22;26262;49.836;6.632;2022-10-31T09:30:42;12.50;99.90
39347;DHT22;26262;49.836;6.632;2022-10-31T09:33:11;12.30;99.90
39347;DHT22;26262;49.836;6.632;2022-10-31T09:35:37;12.30;99.90
39347;DHT22;26262;49.836;6.632;2022-10-31T09:38:09;12.50;99.90
39347;DHT22;26262;49.836;6.632;2022-10-31T09:40:39;12.70;99.90
39347;DHT22;26262;49.836;6.632;2022-10-31T09:46:00;12.60;99.90
39347;DHT22;26262;49.836;6.632;2022-10-31T09:48:52;12.50;99.90
39347;DHT22;26262;49.836;6.632;2022-10-31T09:51:28;12.60;99.90
39347;DHT22;26262;49.836;6.632;2022-10-31T09:54:16;12.70;99.90
39347;DHT22;26262;49.836;6.632;2022-10-31T09:56:44;12.80;99.90
39347;DHT22;26262;49.836;6.632;2022-10-31T09:59:33;12.90;99.90
39347;DHT22;26262;49.836;6.632;2022-10-31T10:02:06;13.00;99.90
39347;DHT22;26262;49.836;6.632;2022-10-31T10:07:13;13.20;99.90
39347;DHT22;26262;49.836;6.632;2022-10-31T10:09:39;13.20;99.90
39347;DHT22;26262;49.836;6.632;2022-10-31T10:23:42;13.50;99.90
39347;DHT22;26262;49.836;6.632;2022-10-31T10:27:03;13.50;99.90
39347;DHT22;26262;49.836;6.632;2022-10-31T10:31:43;13.40;99.90
39347;DHT22;26262;49.836;6.632;2022-10-31T10:34:18;13.30;99.90
39347;DHT22;26262;49.836;6.632;2022-10-31T10:37:00;13.20;99.90
39347;DHT22;26262;49.836;6.632;2022-10-31T10:39:34;13.30;99.90
39347;DHT22;26262;49.836;6.632;2022-10-31T10:42:01;13.50;99.90
39347;DHT22;26262;49.836;6.632;2022-10-31T10:44:51;13.60;99.90
39347;DHT22;26262;49.836;6.632;2022-10-31T10:47:41;13.70;99.90
39347;DHT22;26262;49.836;6.632;2022-10-31T10:50:18;13.80;99.90
39347;DHT22;26262;49.836;6.632;2022-10-31T10:57:58;14.00;99.90
39347;DHT22;26262;49.836;6.632;2022-10-31T11:03:01;14.10;99.90
39347;DHT22;26262;49.836;6.632;2022-10-31T11:05:36;13.90;99.90
39347;DHT22;26262;49.836;6.632;2022-10-31T11:08:03;13.90;99.90
39347;DHT22;26262;49.836;6.632;2022-10-31T11:10:29;13.90;99.90
39347;DHT22;26262;49.836;6.632;2022-10-31T11:13:19;14.10;99.90
39347;DHT22;26262;49.836;6.632;2022-10-31T11:18:22;14.30;99.90
39347;DHT22;26262;49.836;6.632;2022-10-31T11:20:52;14.30;99.90
39347;DHT22;26262;49.836;6.632;2022-10-31T11:23:19;14.40;99.90
39347;DHT22;26262;49.836;6.632;2022-10-31T11:26:29;14.50;99.90
39347;DHT22;26262;49.836;6.632;2022-10-31T11:28:59;14.70;99.90
39347;DHT22;26262;49.836;6.632;2022-10-31T11:31:25;14.90;99.90
39347;DHT22;26262;49.836;6.632;2022-10-31T11:34:02;15.10;99.90
39347;DHT22;26262;49.836;6.632;2022-10-31T11:36:37;15.10;99.90
39347;DHT22;26262;49.836;6.632;2022-10-31T11:39:05;15.30;99.90
39347;DHT22;26262;49.836;6.632;2022-10-31T11:41:39;15.50;99.90
39347;DHT22;26262;49.836;6.632;2022-10-31T11:44:15;15.70;99.90
39347;DHT22;26262;49.836;6.632;2022-10-31T11:46:47;15.90;99.90
39347;DHT22;26262;49.836;6.632;2022-10-31T11:49:19;15.70;99.90
39347;DHT22;26262;49.836;6.632;2022-10-31T11:51:50;15.60;99.90
39347;DHT22;26262;49.836;6.632;2022-10-31T11:54:29;15.60;99.90
39347;DHT22;26262;49.836;6.632;2022-10-31T11:56:56;15.60;99.90
39347;DHT22;26262;49.836;6.632;2022-10-31T11:59:25;15.50;99.90
39347;DHT22;26262;49.836;6.632;2022-10-31T12:01:53;15.50;99.90
39347;DHT22;26262;49.836;6.632;2022-10-31T12:04:29;15.60;99.90
39347;DHT22;26262;49.836;6.632;2022-10-31T12:06:57;15.60;99.90
39347;DHT22;26262;49.836;6.632;2022-10-31T12:09:25;15.60;99.90
39347;DHT22;26262;49.836;6.632;2022-10-31T12:14:50;15.70;99.90
39347;DHT22;26262;49.836;6.632;2022-10-31T12:17:27;15.50;99.90
39347;DHT22;26262;49.836;6.632;2022-10-31T12:20:04;15.50;99.90
39347;DHT22;26262;49.836;6.632;2022-10-31T12:23:01;15.30;99.90
39347;DHT22;26262;49.836;6.632;2022-10-31T12:25:37;15.50;99.90
39347;DHT22;26262;49.836;6.632;2022-10-31T12:30:58;15.80;99.90
39347;DHT22;26262;49.836;6.632;2022-10-31T12:33:34;16.00;99.90
39347;DHT22;26262;49.836;6.632;2022-10-31T12:50:27;16.30;99.90
39347;DHT22;26262;49.836;6.632;2022-10-31T12:53:25;16.40;99.90
39347;DHT22;26262;49.836;6.632;2022-10-31T12:56:19;16.60;99.90
39347;DHT22;26262;49.836;6.632;2022-10-31T12:58:56;16.30;99.90
39347;DHT22;26262;49.836;6.632;2022-10-31T13:01:35;16.10;99.90
39347;DHT22;26262;49.836;6.632;2022-10-31T13:04:05;16.20;99.90
39347;DHT22;26262;49.836;6.632;2022-10-31T13:06:42;16.10;99.90
39347;DHT22;26262;49.836;6.632;2022-10-31T13:09:13;16.20;99.90
39347;DHT22;26262;49.836;6.632;2022-10-31T13:11:45;16.20;99.90
39347;DHT22;26262;49.836;6.632;2022-10-31T13:14:49;16.40;99.90
39347;DHT22;26262;49.836;6.632;2022-10-31T13:17:22;16.40;99.90
39347;DHT22;26262;49.836;6.632;2022-10-31T13:19:50;16.40;99.90
39347;DHT22;26262;49.836;6.632;2022-10-31T13:22:20;17.10;99.90
39347;DHT22;26262;49.836;6.632;2022-10-31T13:25:03;18.10;99.90
39347;DHT22;26262;49.836;6.632;2022-10-31T13:28:03;19.10;99.90
39347;DHT22;26262;49.836;6.632;2022-10-31T13:30:34;20.00;99.90
39347;DHT22;26262;49.836;6.632;2022-10-31T13:33:17;20.70;99.90
39347;DHT22;26262;49.836;6.632;2022-10-31T13:35:54;21.50;99.90
39347;DHT22;26262;49.836;6.632;2022-10-31T13:38:35;22.00;99.90
39347;DHT22;26262;49.836;6.632;2022-10-31T13:44:09;22.80;99.90
39347;DHT22;26262;49.836;6.632;2022-10-31T13:46:38;22.60;99.90
39347;DHT22;26262;49.836;6.632;2022-10-31T13:51:47;20.10;99.90
39347;DHT22;26262;49.836;6.632;2022-10-31T13:54:34;19.80;99.90
39347;DHT22;26262;49.836;6.632;2022-10-31T13:57:00;18.90;99.90
39347;DHT22;26262;49.836;6.632;2022-10-31T13:59:27;18.90;99.90
39347;DHT22;26262;49.836;6.632;2022-10-31T14:01:56;18.90;99.90
39347;DHT22;26262;49.836;6.632;2022-10-31T14:04:45;18.70;99.90
39347;DHT22;26262;49.836;6.632;2022-10-31T14:07:14;18.50;99.90
39347;DHT22;26262;49.836;6.632;2022-10-31T14:12:43;18.20;99.90
39347;DHT22;26262;49.836;6.632;2022-10-31T14:15:22;18.20;99.90
39347;DHT22;26262;49.836;6.632;2022-10-31T14:22:59;18.10;99.90
39347;DHT22;26262;49.836;6.632;2022-10-31T14:25:36;17.90;99.90
39347;DHT22;26262;49.836;6.632;2022-10-31T14:28:18;17.70;99.90
39347;DHT22;26262;49.836;6.632;2022-10-31T14:30:56;17.60;99.90
39347;DHT22;26262;49.836;6.632;2022-10-31T14:33:24;17.90;99.90
39347;DHT22;26262;49.836;6.632;2022-10-31T14:36:18;18.30;99.90
39347;DHT22;26262;49.836;6.632;2022-10-31T14:39:11;18.40;99.90
39347;DHT22;26262;49.836;6.632;2022-10-31T14:41:54;18.20;99.90
39347;DHT22;26262;49.836;6.632;2022-10-31T14:47:15;17.50;99.90
39347;DHT22;26262;49.836;6.632;2022-10-31T14:49:50;17.10;99.90
39347;DHT22;26262;49.836;6.632;2022-10-31T14:52:20;17.20;99.90
39347;DHT22;26262;49.836;6.632;2022-10-31T14:54:51;17.10;99.90
39347;DHT22;26262;49.836;6.632;2022-10-31T14:57:26;17.30;99.90
39347;DHT22;26262;49.836;6.632;2022-10-31T14:59:57;16.70;99.90
39347;DHT22;26262;49.836;6.632;2022-10-31T15:02:34;16.70;99.90
39347;DHT22;26262;49.836;6.632;2022-10-31T15:05:07;16.50;99.90
39347;DHT22;26262;49.836;6.632;2022-10-31T15:07:33;16.20;99.90
39347;DHT22;26262;49.836;6.632;2022-10-31T15:10:23;16.10;99.90
39347;DHT22;26262;49.836;6.632;2022-10-31T15:12:49;16.20;99.90
39347;DHT22;26262;49.836;6.632;2022-10-31T15:15:20;15.90;99.90
39347;DHT22;26262;49.836;6.632;2022-10-31T15:17:49;16.00;99.90
39347;DHT22;26262;49.836;6.632;2022-10-31T15:20:21;15.60;99.90
39347;DHT22;26262;49.836;6.632;2022-10-31T15:22:48;15.60;99.90
39347;DHT22;26262;49.836;6.632;2022-10-31T15:25:27;15.20;99.90
39347;DHT22;26262;49.836;6.632;2022-10-31T15:27:54;15.40;99.90
39347;DHT22;26262;49.836;6.632;2022-10-31T15:30:26;15.20;99.90
39347;DHT22;26262;49.836;6.632;2022-10-31T15:32:52;15.30;99.90
39347;DHT22;26262;49.836;6.632;2022-10-31T15:35:25;15.30;99.90
39347;DHT22;26262;49.836;6.632;2022-10-31T15:37:52;15.30;99.90
39347;DHT22;26262;49.836;6.632;2022-10-31T15:40:20;15.40;99.90
39347;DHT22;26262;49.836;6.632;2022-10-31T15:43:03;15.00;99.90
39347;DHT22;26262;49.836;6.632;2022-10-31T15:45:30;15.00;99.90
39347;DHT22;26262;49.836;6.632;2022-10-31T15:48:01;14.60;99.90
39347;DHT22;26262;49.836;6.632;2022-10-31T15:50:42;14.70;99.90
39347;DHT22;26262;49.836;6.632;2022-10-31T15:53:41;14.50;99.90
39347;DHT22;26262;49.836;6.632;2022-10-31T15:56:11;14.40;99.90
39347;DHT22;26262;49.836;6.632;2022-10-31T15:58:44;14.20;99.90
39347;DHT22;26262;49.836;6.632;2022-10-31T16:03:59;14.20;99.90
39347;DHT22;26262;49.836;6.632;2022-10-31T16:06:26;14.30;99.90
39347;DHT22;26262;49.836;6.632;2022-10-31T16:08:51;14.20;99.90
39347;DHT22;26262;49.836;6.632;2022-10-31T16:16:50;14.00;99.90
39347;DHT22;26262;49.836;6.632;2022-10-31T16:19:28;13.90;99.90
39347;DHT22;26262;49.836;6.632;2022-10-31T16:22:06;14.00;99.90
39347;DHT22;26262;49.836;6.632;2022-10-31T16:24:38;13.70;99.90
39347;DHT22;26262;49.836;6.632;2022-10-31T16:27:18;13.50;99.90
39347;DHT22;26262;49.836;6.632;2022-10-31T16:29:46;13.40;99.90
39347;DHT22;26262;49.836;6.632;2022-10-31T16:32:52;13.60;99.90
39347;DHT22;26262;49.836;6.632;2022-10-31T16:35:28;13.60;99.90
39347;DHT22;26262;49.836;6.632;2022-10-31T16:37:56;13.50;99.90
39347;DHT22;26262;49.836;6.632;2022-10-31T16:40:23;13.60;99.90
39347;DHT22;26262;49.836;6.632;2022-10-31T16:42:49;13.50;99.90
39347;DHT22;26262;49.836;6.632;2022-10-31T16:47:45;13.40;99.90
39347;DHT22;26262;49.836;6.632;2022-10-31T16:50:23;13.40;99.90
39347;DHT22;26262;49.836;6.632;2022-10-31T16:52:49;13.40;99.90
39347;DHT22;26262;49.836;6.632;2022-10-31T16:55:16;13.10;99.90
39347;DHT22;26262;49.836;6.632;2022-10-31T16:57:44;13.20;99.90
39347;DHT22;26262;49.836;6.632;2022-10-31T17:00:20;13.20;99.90
39347;DHT22;26262;49.836;6.632;2022-10-31T17:02:49;13.10;99.90
39347;DHT22;26262;49.836;6.632;2022-10-31T17:05:17;12.90;99.90
39347;DHT22;26262;49.836;6.632;2022-10-31T17:07:43;13.00;99.90
39347;DHT22;26262;49.836;6.632;2022-10-31T17:10:10;12.90;99.90
39347;DHT22;26262;49.836;6.632;2022-10-31T17:12:39;12.60;99.90
39347;DHT22;26262;49.836;6.632;2022-10-31T17:15:08;12.50;99.90
39347;DHT22;26262;49.836;6.632;2022-10-31T17:17:35;12.60;99.90
39347;DHT22;26262;49.836;6.632;2022-10-31T17:20:00;12.50;99.90
39347;DHT22;26262;49.836;6.632;2022-10-31T17:22:26;12.20;99.90
39347;DHT22;26262;49.836;6.632;2022-10-31T17:24:52;12.30;99.90